Time;durP1;ratioP1;P1;durP2;ratioP2;P2;SDS_P1;SDS_P2;PMS_P1;PMS_P2;Temp;Humidity;BMP_temperature;BMP_pressure;BME280_temperature;BME280_humidity;BME280_pressure;Samples;Min_cycle;Max_cycle;Signal;HPM_P1;HPM_P2
2022/06/19 00:00:36;;;;;;;19.50;3.65;;;17.00;93.90;;;;;;4936342;28;91827;-70
2022/06/19 00:03:07;;;;;;;19.38;3.97;;;16.90;93.90;;;;;;4937485;28;92984;-70
2022/06/19 00:05:34;;;;;;;13.25;4.15;;;16.90;94.00;;;;;;4952642;28;92791;-71
2022/06/19 00:08:01;;;;;;;15.63;4.75;;;16.90;94.50;;;;;;4919285;28;95423;-70
2022/06/19 00:10:29;;;;;;;16.27;3.97;;;16.90;94.40;;;;;;4937641;28;92496;-70
2022/06/19 00:12:56;;;;;;;18.95;3.70;;;16.80;94.50;;;;;;4937411;28;97688;-70
2022/06/19 00:15:23;;;;;;;18.42;4.07;;;16.80;94.60;;;;;;4936237;28;95578;-70
2022/06/19 00:17:50;;;;;;;21.67;5.07;;;16.80;94.70;;;;;;4936677;28;99476;-71
2022/06/19 00:20:17;;;;;;;19.65;4.57;;;16.80;94.80;;;;;;4936149;28;92517;-70
2022/06/19 00:22:43;;;;;;;16.42;3.75;;;16.80;94.80;;;;;;4935979;28;93253;-70
2022/06/19 00:25:10;;;;;;;18.58;3.53;;;16.80;94.90;;;;;;4937752;28;92958;-70
2022/06/19 00:27:41;;;;;;;22.52;3.97;;;16.80;95.00;;;;;;4936038;28;93141;-70
2022/06/19 00:30:12;;;;;;;13.20;3.92;;;16.80;94.90;;;;;;4937628;28;92977;-71
2022/06/19 00:32:39;;;;;;;20.45;3.40;;;16.80;95.00;;;;;;4934765;28;95642;-70
2022/06/19 00:35:06;;;;;;;12.52;3.75;;;16.70;95.10;;;;;;4935640;28;103120;-70
2022/06/19 00:37:34;;;;;;;12.45;4.07;;;16.70;95.00;;;;;;4935824;28;92502;-70
2022/06/19 00:40:04;;;;;;;17.50;3.92;;;16.60;94.90;;;;;;4936249;28;92868;-70
2022/06/19 00:42:31;;;;;;;13.25;2.95;;;16.60;94.70;;;;;;4936975;28;93272;-70
2022/06/19 00:44:58;;;;;;;11.70;4.43;;;16.60;95.10;;;;;;4935848;28;95486;-70
2022/06/19 00:47:34;;;;;;;15.07;4.13;;;16.60;94.80;;;;;;4937202;28;92467;-71
2022/06/19 00:50:23;;;;;;;13.13;3.80;;;16.70;94.60;;;;;;4935452;28;91731;-70
2022/06/19 00:52:50;;;;;;;11.75;2.90;;;16.70;94.30;;;;;;4937153;28;93279;-70
2022/06/19 00:55:25;;;;;;;13.27;2.97;;;16.60;94.40;;;;;;4935584;28;95553;-70
2022/06/19 00:58:00;;;;;;;17.70;3.70;;;16.70;94.40;;;;;;4936192;28;95431;-70
2022/06/19 01:00:29;;;;;;;13.63;3.38;;;16.70;94.30;;;;;;4935660;28;92528;-70
2022/06/19 01:03:01;;;;;;;18.42;3.20;;;16.70;94.30;;;;;;4936235;28;93344;-70
2022/06/19 01:05:30;;;;;;;16.10;2.90;;;16.70;94.30;;;;;;4937165;28;92418;-71
2022/06/19 01:08:00;;;;;;;12.32;3.58;;;16.70;94.40;;;;;;4936827;28;92503;-70
2022/06/19 01:10:27;;;;;;;11.77;3.00;;;16.70;94.50;;;;;;4935773;28;92464;-70
2022/06/19 01:12:56;;;;;;;14.07;2.63;;;16.70;94.60;;;;;;4936331;28;93261;-70
2022/06/19 01:15:25;;;;;;;12.63;3.90;;;16.60;94.60;;;;;;4936841;28;93096;-70
2022/06/19 01:17:56;;;;;;;11.13;2.35;;;16.70;94.60;;;;;;4936621;28;92366;-70
2022/06/19 01:20:25;;;;;;;14.23;2.90;;;16.70;94.60;;;;;;4936966;28;92480;-70
2022/06/19 01:23:15;;;;;;;15.68;3.75;;;16.70;94.70;;;;;;4949835;28;103409;-70
2022/06/19 01:25:44;;;;;;;14.27;3.50;;;16.70;94.60;;;;;;4936403;28;95028;-70
2022/06/19 01:31:00;;;;;;;15.02;4.13;;;16.60;95.00;;;;;;4936525;28;93037;-70
2022/06/19 01:33:47;;;;;;;13.65;2.42;;;16.60;95.00;;;;;;4918949;28;95947;-70
2022/06/19 01:36:19;;;;;;;14.20;3.85;;;16.60;94.80;;;;;;4935120;28;95485;-70
2022/06/19 01:38:50;;;;;;;12.25;3.28;;;16.60;94.90;;;;;;4936421;28;92434;-70
2022/06/19 01:41:26;;;;;;;17.42;3.45;;;16.50;94.80;;;;;;4919573;28;91705;-70
2022/06/19 01:43:53;;;;;;;13.73;2.95;;;16.50;94.80;;;;;;4935002;28;93220;-70
2022/06/19 01:46:23;;;;;;;13.05;3.03;;;16.50;94.60;;;;;;4936161;28;93135;-71
2022/06/19 01:48:51;;;;;;;8.50;2.58;;;16.60;94.20;;;;;;4934939;28;95197;-70
2022/06/19 01:51:18;;;;;;;9.85;3.50;;;16.70;93.70;;;;;;4935969;28;99982;-70
2022/06/19 01:53:48;;;;;;;13.60;3.03;;;16.70;93.30;;;;;;4936195;28;93350;-70
2022/06/19 01:56:15;;;;;;;11.35;3.88;;;16.70;93.10;;;;;;4936101;28;92529;-70
2022/06/19 01:58:50;;;;;;;11.65;2.40;;;16.70;92.50;;;;;;4934761;28;92463;-71
2022/06/19 02:01:17;;;;;;;9.40;3.50;;;16.70;92.00;;;;;;4938951;28;92760;-70
2022/06/19 02:03:49;;;;;;;8.43;2.63;;;16.70;91.50;;;;;;4937561;28;95823;-70
2022/06/19 02:06:21;;;;;;;8.77;2.47;;;16.70;91.10;;;;;;4940079;28;93149;-70
2022/06/19 02:08:48;;;;;;;8.75;2.40;;;16.70;90.90;;;;;;4938245;28;92556;-70
2022/06/19 02:11:16;;;;;;;8.32;2.75;;;16.70;91.10;;;;;;4938038;28;92429;-70
2022/06/19 02:13:44;;;;;;;9.77;2.42;;;16.70;90.90;;;;;;4938140;28;95697;-70
2022/06/19 02:16:22;;;;;;;7.22;3.72;;;16.70;91.00;;;;;;4937702;28;95450;-71
2022/06/19 02:18:52;;;;;;;11.77;3.08;;;16.70;91.20;;;;;;4937892;28;92442;-70
2022/06/19 02:21:33;;;;;;;10.90;3.00;;;16.70;91.50;;;;;;4938075;28;92511;-70
2022/06/19 02:24:01;;;;;;;11.43;3.08;;;16.60;91.80;;;;;;4939061;28;93157;-70
2022/06/19 02:26:29;;;;;;;11.30;2.15;;;16.60;92.20;;;;;;4921906;28;95674;-70
2022/06/19 02:28:56;;;;;;;14.40;3.65;;;16.60;92.30;;;;;;4939115;28;92475;-70
2022/06/19 02:31:23;;;;;;;8.23;2.20;;;16.50;92.30;;;;;;4939567;28;91720;-70
2022/06/19 02:33:54;;;;;;;9.65;2.50;;;16.50;92.50;;;;;;4937626;28;93150;-70
2022/06/19 02:36:38;;;;;;;13.75;2.92;;;16.60;92.70;;;;;;4937611;28;95627;-70
2022/06/19 02:39:43;;;;;;;9.90;2.50;;;16.60;92.80;;;;;;4937774;28;94828;-70
2022/06/19 02:42:26;;;;;;;16.15;4.15;;;16.60;92.90;;;;;;4939074;28;92541;-70
2022/06/19 02:45:01;;;;;;;12.30;3.65;;;16.50;93.10;;;;;;4937574;28;94291;-70
2022/06/19 02:47:31;;;;;;;15.80;3.28;;;16.60;93.20;;;;;;4938853;28;93066;-70
2022/06/19 02:49:58;;;;;;;13.55;3.67;;;16.60;93.20;;;;;;4939174;28;92885;-70
2022/06/19 02:52:25;;;;;;;16.23;3.42;;;16.50;93.30;;;;;;4937669;28;92457;-70
2022/06/19 02:54:52;;;;;;;11.43;2.13;;;16.50;93.50;;;;;;4938530;28;93915;-70
2022/06/19 02:57:19;;;;;;;15.45;4.28;;;16.60;93.60;;;;;;4939203;28;93066;-70
2022/06/19 02:59:46;;;;;;;12.30;3.85;;;16.60;93.70;;;;;;4937205;28;92543;-70
2022/06/19 03:02:14;;;;;;;10.00;3.05;;;16.60;93.70;;;;;;4938286;28;92506;-70
2022/06/19 03:04:48;;;;;;;11.30;3.60;;;16.60;93.90;;;;;;4935994;28;98281;-70
2022/06/19 03:07:15;;;;;;;10.48;2.65;;;16.70;93.90;;;;;;4937296;28;95524;-70
2022/06/19 03:09:42;;;;;;;12.52;2.90;;;16.60;94.10;;;;;;4938858;28;92983;-70
2022/06/19 03:12:10;;;;;;;14.13;2.67;;;16.70;94.20;;;;;;4937462;28;92459;-70
2022/06/19 03:14:41;;;;;;;15.20;3.65;;;16.70;93.80;;;;;;4937477;28;93258;-70
2022/06/19 03:17:15;;;;;;;12.70;2.95;;;16.70;93.90;;;;;;4938339;28;92704;-70
2022/06/19 03:19:43;;;;;;;11.20;2.85;;;16.80;93.70;;;;;;4938849;28;92367;-70
2022/06/19 03:22:11;;;;;;;13.27;3.28;;;16.70;93.50;;;;;;4937067;28;92596;-70
2022/06/19 03:24:39;;;;;;;12.40;3.55;;;16.70;93.70;;;;;;4936808;28;94980;-70
2022/06/19 03:27:09;;;;;;;13.05;3.15;;;16.70;93.40;;;;;;4921359;28;93151;-71
2022/06/19 03:29:36;;;;;;;12.70;3.28;;;16.70;93.30;;;;;;4935967;28;94908;-70
2022/06/19 03:32:03;;;;;;;12.98;2.55;;;16.60;93.30;;;;;;4936923;28;92461;-70
2022/06/19 03:34:31;;;;;;;9.18;3.03;;;16.60;93.00;;;;;;4938178;28;93270;-70
2022/06/19 03:36:58;;;;;;;12.50;2.45;;;16.60;93.20;;;;;;4937777;28;93079;-70
2022/06/19 03:39:25;;;;;;;12.75;2.67;;;16.50;93.30;;;;;;4938037;28;92498;-70
2022/06/19 03:41:52;;;;;;;11.20;2.47;;;16.50;93.40;;;;;;4938435;28;92953;-70
2022/06/19 03:44:19;;;;;;;13.75;3.95;;;16.50;93.40;;;;;;4937752;28;93147;-70
2022/06/19 03:46:46;;;;;;;12.15;2.97;;;16.40;93.30;;;;;;4937074;28;93120;-70
2022/06/19 03:49:13;;;;;;;12.60;2.30;;;16.40;93.50;;;;;;4937875;28;92486;-70
2022/06/19 03:51:40;;;;;;;12.80;2.50;;;16.30;93.10;;;;;;4938129;28;93165;-70
2022/06/19 03:54:08;;;;;;;13.68;2.88;;;16.30;93.20;;;;;;4936348;28;95698;-70
2022/06/19 03:56:36;;;;;;;7.35;2.70;;;16.40;93.10;;;;;;4920148;28;106518;-70
2022/06/19 03:59:10;;;;;;;11.07;2.33;;;16.40;91.50;;;;;;4936469;28;92614;-70
2022/06/19 04:01:41;;;;;;;9.35;2.10;;;16.40;90.20;;;;;;4936482;28;92469;-71
2022/06/19 04:04:10;;;;;;;9.50;1.90;;;16.50;88.10;;;;;;4935757;28;95852;-70
2022/06/19 04:06:40;;;;;;;5.93;2.55;;;16.50;86.90;;;;;;4936343;28;92933;-70
2022/06/19 04:09:10;;;;;;;10.50;3.10;;;16.50;86.40;;;;;;4937826;28;92443;-71
2022/06/19 04:11:37;;;;;;;6.85;3.05;;;16.50;86.30;;;;;;4936956;28;91671;-71
2022/06/19 04:14:04;;;;;;;6.80;2.67;;;16.50;86.20;;;;;;4936102;28;92526;-71
2022/06/19 04:16:33;;;;;;;6.47;2.22;;;16.50;86.20;;;;;;4937572;28;93080;-71
2022/06/19 04:19:02;;;;;;;8.73;3.60;;;16.50;86.70;;;;;;4935954;28;94745;-71
2022/06/19 04:21:32;;;;;;;9.52;2.47;;;16.60;87.30;;;;;;4936628;28;93123;-71
2022/06/19 04:24:03;;;;;;;7.05;2.25;;;16.60;86.90;;;;;;4935834;28;95891;-71
2022/06/19 04:26:34;;;;;;;10.10;2.10;;;16.60;87.30;;;;;;4937459;28;93541;-71
2022/06/19 04:29:01;;;;;;;6.80;1.85;;;16.60;88.20;;;;;;4935942;28;92457;-71
2022/06/19 04:31:29;;;;;;;8.52;1.77;;;16.60;89.20;;;;;;4936190;28;92469;-71
2022/06/19 04:33:56;;;;;;;10.50;2.95;;;16.60;90.10;;;;;;4937479;28;93218;-70
2022/06/19 04:36:26;;;;;;;8.43;2.38;;;16.50;90.80;;;;;;4935999;28;95719;-71
2022/06/19 04:38:55;;;;;;;10.38;2.70;;;16.60;90.90;;;;;;4937287;28;92412;-70
2022/06/19 04:41:25;;;;;;;9.45;1.92;;;16.60;90.80;;;;;;4935847;28;92539;-71
2022/06/19 04:43:53;;;;;;;10.98;3.35;;;16.60;90.80;;;;;;4934125;28;99106;-70
2022/06/19 04:46:21;;;;;;;9.38;2.47;;;16.60;90.50;;;;;;4936602;28;95520;-70
2022/06/19 04:48:49;;;;;;;8.75;1.98;;;16.70;90.30;;;;;;4936748;28;105522;-70
2022/06/19 04:51:17;;;;;;;10.68;3.35;;;16.70;90.20;;;;;;4936939;28;92434;-71
2022/06/19 04:53:44;;;;;;;8.07;2.00;;;16.80;89.80;;;;;;4937202;28;93177;-71
2022/06/19 04:56:13;;;;;;;8.50;2.90;;;16.80;89.60;;;;;;4936746;28;93095;-70
2022/06/19 04:58:40;;;;;;;9.63;2.13;;;16.90;89.30;;;;;;4936683;28;92607;-71
2022/06/19 05:01:21;;;;;;;9.75;2.90;;;16.90;89.30;;;;;;4937136;28;91693;-70
2022/06/19 05:03:50;;;;;;;7.35;3.08;;;17.00;88.40;;;;;;4935016;28;94704;-70
2022/06/19 05:06:17;;;;;;;7.50;1.98;;;17.00;87.70;;;;;;4936495;28;93174;-71
2022/06/19 05:08:44;;;;;;;7.88;1.35;;;17.20;86.20;;;;;;4935939;28;95334;-70
2022/06/19 05:11:11;;;;;;;8.02;1.85;;;17.30;85.40;;;;;;4919245;28;92608;-70
2022/06/19 05:13:39;;;;;;;13.13;2.58;;;17.30;83.20;;;;;;4936773;28;93031;-70
2022/06/19 05:16:12;;;;;;;5.35;1.65;;;17.30;82.30;;;;;;4935206;28;95644;-70
2022/06/19 05:18:39;;;;;;;6.60;2.03;;;17.40;80.50;;;;;;4936943;28;92647;-70
2022/06/19 05:21:06;;;;;;;6.43;1.83;;;17.30;81.40;;;;;;4935213;28;92394;-70
2022/06/19 05:23:40;;;;;;;7.95;3.58;;;17.40;79.80;;;;;;4935008;28;96076;-70
2022/06/19 05:26:11;;;;;;;4.88;2.42;;;17.40;81.20;;;;;;4936082;28;93040;-70
2022/06/19 05:28:38;;;;;;;7.43;2.55;;;17.40;81.80;;;;;;4936960;28;92458;-70
2022/06/19 05:31:05;;;;;;;8.80;2.45;;;17.30;82.70;;;;;;4935099;28;92521;-70
2022/06/19 05:33:34;;;;;;;7.68;2.30;;;17.30;85.00;;;;;;4935050;28;95789;-70
2022/06/19 05:36:03;;;;;;;8.32;2.13;;;17.30;87.40;;;;;;4937073;28;95460;-70
2022/06/19 05:38:30;;;;;;;9.13;3.30;;;17.30;89.20;;;;;;4938767;28;92436;-70
2022/06/19 05:40:58;;;;;;;9.13;3.05;;;17.30;90.20;;;;;;4939965;28;92533;-70
2022/06/19 05:43:27;;;;;;;7.95;3.75;;;17.20;90.50;;;;;;4939480;28;93173;-70
2022/06/19 05:45:57;;;;;;;11.43;2.42;;;17.40;90.70;;;;;;4939612;28;93051;-70
2022/06/19 05:48:27;;;;;;;9.07;3.03;;;17.40;90.80;;;;;;4940046;28;92360;-70
2022/06/19 05:51:07;;;;;;;8.82;2.30;;;17.50;91.00;;;;;;4939967;28;91716;-70
2022/06/19 05:53:38;;;;;;;11.13;3.65;;;17.70;90.30;;;;;;4937946;28;95777;-70
2022/06/19 05:56:06;;;;;;;11.20;3.58;;;17.50;89.30;;;;;;4939807;28;92563;-70
2022/06/19 05:58:34;;;;;;;9.00;2.47;;;17.50;89.20;;;;;;4937017;28;94835;-70
2022/06/19 06:01:02;;;;;;;8.73;2.47;;;17.50;89.20;;;;;;4938070;28;92561;-70
2022/06/19 06:03:30;;;;;;;8.82;2.30;;;17.40;89.80;;;;;;4921542;28;94161;-70
2022/06/19 06:06:02;;;;;;;12.15;3.00;;;17.40;90.30;;;;;;4938234;28;93042;-70
2022/06/19 06:08:30;;;;;;;8.05;2.30;;;17.40;90.70;;;;;;4937978;28;92519;-71
2022/06/19 06:10:57;;;;;;;11.73;2.90;;;17.40;90.70;;;;;;4939442;28;92442;-70
2022/06/19 06:13:25;;;;;;;7.07;3.65;;;17.40;90.30;;;;;;4937756;28;96016;-70
2022/06/19 06:15:52;;;;;;;8.68;3.22;;;17.40;89.20;;;;;;4939425;28;92916;-70
2022/06/19 06:18:19;;;;;;;8.95;2.42;;;17.60;89.20;;;;;;4938136;28;92493;-70
2022/06/19 06:21:01;;;;;;;9.80;3.28;;;17.80;88.90;;;;;;4938231;28;92875;-70
2022/06/19 06:23:29;;;;;;;6.65;1.73;;;18.00;87.40;;;;;;4936290;28;98443;-70
2022/06/19 06:26:02;;;;;;;7.07;2.08;;;18.00;88.40;;;;;;4939110;28;95409;-70
2022/06/19 06:28:30;;;;;;;8.57;3.80;;;18.10;89.40;;;;;;4939174;28;93020;-70
2022/06/19 06:30:57;;;;;;;8.38;2.95;;;18.00;89.50;;;;;;4939226;28;92495;-71
2022/06/19 06:33:25;;;;;;;7.15;2.13;;;17.90;90.30;;;;;;4937512;28;95848;-70
2022/06/19 06:35:52;;;;;;;11.25;4.05;;;17.90;90.40;;;;;;4954001;28;92643;-70
2022/06/19 06:38:19;;;;;;;10.15;3.53;;;17.90;90.80;;;;;;4937683;28;92566;-70
2022/06/19 06:40:47;;;;;;;14.45;3.00;;;17.70;91.10;;;;;;4938102;28;91770;-71
2022/06/19 06:43:14;;;;;;;11.43;3.90;;;17.60;91.60;;;;;;4937570;28;95993;-70
2022/06/19 06:45:41;;;;;;;9.73;3.33;;;17.40;91.70;;;;;;4938589;28;92944;-70
2022/06/19 06:48:08;;;;;;;12.60;3.20;;;17.30;91.90;;;;;;4903501;28;95247;-70
2022/06/19 06:50:37;;;;;;;13.32;2.58;;;17.30;92.50;;;;;;4938997;28;92420;-70
2022/06/19 06:53:05;;;;;;;10.95;3.15;;;17.20;92.50;;;;;;4938500;28;92963;-70
2022/06/19 06:55:32;;;;;;;12.00;4.10;;;17.10;92.70;;;;;;4938507;28;93534;-70
2022/06/19 06:57:59;;;;;;;12.63;2.50;;;17.10;92.40;;;;;;4938974;28;93015;-70
2022/06/19 07:00:26;;;;;;;7.55;2.92;;;17.20;92.50;;;;;;4938872;28;92355;-70
2022/06/19 07:02:53;;;;;;;13.32;2.83;;;17.20;92.30;;;;;;4936977;28;95836;-70
2022/06/19 07:05:20;;;;;;;11.85;2.58;;;17.30;92.40;;;;;;4939147;28;93088;-70
2022/06/19 07:07:47;;;;;;;9.85;2.85;;;17.40;92.00;;;;;;4937758;28;92597;-70
2022/06/19 07:10:14;;;;;;;11.80;3.15;;;17.40;91.80;;;;;;4938622;28;93089;-70
2022/06/19 07:12:47;;;;;;;7.60;2.17;;;17.50;91.70;;;;;;4937707;28;95694;-70
2022/06/19 07:15:14;;;;;;;11.40;3.47;;;17.50;91.90;;;;;;4938351;28;95393;-70
2022/06/19 07:17:41;;;;;;;7.78;2.75;;;17.50;91.80;;;;;;4938432;28;92356;-70
2022/06/19 07:20:09;;;;;;;7.32;2.50;;;17.60;92.00;;;;;;4937114;28;92510;-70
2022/06/19 07:22:36;;;;;;;12.07;3.95;;;17.60;91.60;;;;;;4938189;28;93187;-70
2022/06/19 07:25:04;;;;;;;10.50;3.47;;;17.60;91.80;;;;;;4936770;28;95668;-70
2022/06/19 07:27:31;;;;;;;10.43;2.60;;;17.60;92.00;;;;;;4938279;28;92841;-70
2022/06/19 07:29:58;;;;;;;11.90;3.25;;;17.60;91.90;;;;;;4938838;28;91715;-70
2022/06/19 07:32:25;;;;;;;11.50;3.55;;;17.50;91.90;;;;;;4936859;28;92466;-70
2022/06/19 07:34:52;;;;;;;11.80;2.58;;;17.60;91.90;;;;;;4937909;28;92955;-70
2022/06/19 07:37:19;;;;;;;10.70;2.47;;;17.70;91.80;;;;;;4937351;28;95397;-70
2022/06/19 07:39:47;;;;;;;12.30;4.00;;;17.80;91.50;;;;;;4936826;28;92527;-70
2022/06/19 07:42:14;;;;;;;10.05;3.45;;;17.90;91.30;;;;;;4938260;28;92986;-70
2022/06/19 07:44:41;;;;;;;12.10;3.35;;;18.00;91.50;;;;;;4936392;28;95760;-70
2022/06/19 07:50:11;;;;;;;10.05;3.40;;;18.10;91.10;;;;;;4938249;28;92546;-70
2022/06/19 07:52:40;;;;;;;13.75;3.15;;;18.00;91.20;;;;;;4937949;28;93079;-70
2022/06/19 07:55:09;;;;;;;11.38;3.50;;;18.10;91.30;;;;;;4936908;28;93122;-70
2022/06/19 07:57:37;;;;;;;12.75;2.67;;;18.20;91.20;;;;;;4935645;28;92936;-70
2022/06/19 08:00:11;;;;;;;9.40;3.38;;;18.20;91.40;;;;;;4936314;28;92477;-70
2022/06/19 08:02:38;;;;;;;;;;;18.20;91.30;;;;;;4936558;28;94958;-71
2022/06/19 08:05:05;;;;;;;10.90;3.47;;;18.00;91.30;;;;;;4937756;28;95040;-70
2022/06/19 08:07:32;;;;;;;12.80;2.80;;;17.90;91.70;;;;;;4952743;28;92358;-70
2022/06/19 08:09:59;;;;;;;11.35;2.60;;;17.90;91.80;;;;;;4938003;28;92851;-70
2022/06/19 08:12:26;;;;;;;12.20;3.65;;;17.90;91.80;;;;;;4935831;28;94825;-70
2022/06/19 08:14:53;;;;;;;11.30;3.90;;;17.90;91.90;;;;;;4937555;28;93179;-70
2022/06/19 08:17:20;;;;;;;9.07;2.72;;;17.90;91.90;;;;;;4920270;28;92442;-71
2022/06/19 08:19:47;;;;;;;11.75;2.72;;;18.00;91.80;;;;;;4936315;28;91877;-70
2022/06/19 08:22:14;;;;;;;15.30;3.90;;;18.10;91.70;;;;;;4936416;28;93267;-70
2022/06/19 08:24:41;;;;;;;10.48;2.90;;;18.10;91.70;;;;;;4937152;28;93175;-71
2022/06/19 08:27:08;;;;;;;11.73;3.47;;;18.20;91.80;;;;;;4919111;28;94912;-70
2022/06/19 08:29:35;;;;;;;13.00;2.83;;;18.10;91.50;;;;;;4936168;28;92583;-70
2022/06/19 08:32:03;;;;;;;12.27;3.80;;;18.20;91.80;;;;;;4952328;28;93211;-70
2022/06/19 08:34:30;;;;;;;14.02;3.95;;;18.20;91.70;;;;;;4937398;28;92976;-70
2022/06/19 08:36:59;;;;;;;10.30;2.25;;;18.30;91.30;;;;;;4920026;28;92996;-70
2022/06/19 08:39:27;;;;;;;11.77;3.45;;;18.40;91.10;;;;;;4937504;28;92421;-70
2022/06/19 08:42:45;;;;;;;14.10;2.65;;;18.40;91.20;;;;;;4919221;28;100456;-70
2022/06/19 08:45:34;;;;;;;12.10;3.63;;;18.40;91.70;;;;;;4911492;28;95534;-70
2022/06/19 08:48:12;;;;;;;9.00;1.95;;;18.20;92.00;;;;;;4937476;28;92781;-70
2022/06/19 08:51:00;;;;;;;11.45;3.08;;;18.00;92.30;;;;;;4919601;28;92450;-70
2022/06/19 08:53:51;;;;;;;7.82;2.67;;;18.00;92.00;;;;;;4935756;28;98998;-70
2022/06/19 08:56:33;;;;;;;10.85;2.88;;;18.20;92.10;;;;;;4936964;28;94254;-70
2022/06/19 08:59:02;;;;;;;13.55;4.05;;;18.30;92.20;;;;;;4937269;28;93187;-70
2022/06/19 09:01:49;;;;;;;10.25;2.85;;;18.30;91.90;;;;;;4936948;28;92456;-70
2022/06/19 09:07:14;;;;;;;13.05;3.40;;;18.40;91.80;;;;;;4936984;28;92962;-70
2022/06/19 09:09:44;;;;;;;12.70;3.75;;;18.50;91.70;;;;;;4934579;28;92565;-70
2022/06/19 09:12:36;;;;;;;10.98;3.35;;;18.40;91.90;;;;;;4937202;28;92096;-70
2022/06/19 09:15:06;;;;;;;13.30;2.88;;;18.50;91.60;;;;;;4936721;28;97954;-70
2022/06/19 09:17:52;;;;;;;8.18;3.55;;;18.30;91.80;;;;;;4935266;28;93160;-70
2022/06/19 09:20:57;;;;;;;11.48;3.28;;;18.30;91.70;;;;;;4934195;28;94906;-70
2022/06/19 09:23:41;;;;;;;12.90;3.58;;;18.30;92.10;;;;;;4928209;28;92600;-70
2022/06/19 09:26:25;;;;;;;12.43;3.58;;;18.20;92.00;;;;;;4935374;28;95854;-70
2022/06/19 09:28:57;;;;;;;;;;;18.30;91.90;;;;;;4936887;28;92491;-70
2022/06/19 09:31:48;;;;;;;13.57;3.03;;;18.20;92.10;;;;;;4938011;28;92386;-70
2022/06/19 09:34:41;;;;;;;11.55;2.88;;;18.40;91.90;;;;;;4935690;28;92974;-70
2022/06/19 09:37:15;;;;;;;15.32;3.90;;;18.50;91.90;;;;;;4934869;28;95864;-70
2022/06/19 09:40:03;;;;;;;11.23;3.35;;;18.60;91.60;;;;;;4935267;28;93915;-70
2022/06/19 09:42:46;;;;;;;9.85;3.78;;;18.70;91.10;;;;;;4935504;28;92502;-70
2022/06/19 09:45:21;;;;;;;6.27;2.97;;;18.70;90.70;;;;;;4919200;28;92575;-70
2022/06/19 09:48:11;;;;;;;12.70;4.30;;;18.60;90.90;;;;;;4949795;28;95680;-70
2022/06/19 09:50:46;;;;;;;10.55;3.92;;;18.50;91.10;;;;;;4936356;28;95434;-70
2022/06/19 09:53:32;;;;;;;10.25;4.68;;;18.50;91.40;;;;;;4936682;28;92351;-70
2022/06/19 09:56:57;;;;;;;9.50;3.15;;;18.60;91.40;;;;;;4936381;28;92361;-70
2022/06/19 09:59:36;;;;;;;11.52;4.97;;;18.70;91.60;;;;;;4934851;28;93200;-70
2022/06/19 10:02:33;;;;;;;11.45;3.25;;;18.90;91.90;;;;;;4935647;28;96119;-70
2022/06/19 10:05:33;;;;;;;8.45;2.90;;;19.10;91.90;;;;;;4934857;28;92440;-70
2022/06/19 10:08:23;;;;;;;10.43;2.83;;;19.40;91.10;;;;;;4936613;28;91601;-70
2022/06/19 10:10:59;;;;;;;11.35;3.53;;;19.60;90.50;;;;;;4936003;28;93192;-70
2022/06/19 10:13:34;;;;;;;10.02;3.65;;;19.70;90.30;;;;;;4936164;28;92576;-70
2022/06/19 10:16:04;;;;;;;11.98;3.47;;;19.80;89.90;;;;;;4934879;28;94834;-70
2022/06/19 10:18:37;;;;;;;8.82;4.25;;;20.00;88.60;;;;;;4934635;28;92564;-70
2022/06/19 10:22:13;;;;;;;8.32;4.43;;;20.20;87.90;;;;;;4934932;28;95803;-70
2022/06/19 10:24:15;;;;;;;9.15;3.35;;;20.30;87.40;;;;;;4937325;28;95480;-70
2022/06/19 10:27:02;;;;;;;10.85;5.13;;;20.20;87.50;;;;;;4922130;28;92992;-70
2022/06/19 10:29:37;;;;;;;7.63;4.22;;;20.20;87.00;;;;;;4939446;28;92384;-70
2022/06/19 10:32:22;;;;;;;8.63;3.47;;;20.30;88.10;;;;;;4937364;28;95983;-70
2022/06/19 10:34:58;;;;;;;7.22;3.28;;;20.30;86.00;;;;;;4938310;28;93081;-70
2022/06/19 10:37:47;;;;;;;8.27;5.00;;;20.10;85.80;;;;;;4938143;28;92598;-70
2022/06/19 10:40:40;;;;;;;8.23;3.38;;;20.00;86.70;;;;;;4938947;28;92562;-70
2022/06/19 10:43:30;;;;;;;6.60;2.35;;;20.00;86.20;;;;;;4937676;28;95559;-70
2022/06/19 10:45:59;;;;;;;5.45;2.30;;;19.80;86.80;;;;;;4933426;28;95414;-70
2022/06/19 10:48:40;;;;;;;7.85;2.95;;;19.60;87.50;;;;;;4938963;28;92385;-70
2022/06/19 10:51:15;;;;;;;7.15;2.60;;;19.70;86.80;;;;;;4938769;28;92345;-70
2022/06/19 10:53:54;;;;;;;9.77;3.72;;;19.60;86.80;;;;;;4939034;28;93179;-70
2022/06/19 10:56:30;;;;;;;6.28;2.97;;;19.60;86.80;;;;;;4939164;28;93043;-70
2022/06/19 10:58:58;;;;;;;7.30;2.95;;;19.40;86.90;;;;;;4938675;28;92646;-70
2022/06/19 11:04:59;;;;;;;7.32;3.90;;;19.20;86.90;;;;;;4938703;28;93196;-70
2022/06/19 11:07:28;;;;;;;7.63;2.63;;;19.30;87.30;;;;;;4937149;28;95456;-70
2022/06/19 11:10:10;;;;;;;6.10;3.83;;;19.30;86.50;;;;;;4937477;28;94874;-70
2022/06/19 11:12:48;;;;;;;7.63;2.33;;;19.40;85.50;;;;;;4937131;28;92467;-71
2022/06/19 11:15:41;;;;;;;7.95;4.82;;;19.50;84.80;;;;;;4938471;28;92387;-70
2022/06/19 11:18:22;;;;;;;6.68;3.72;;;19.60;84.00;;;;;;4934105;28;92881;-70
2022/06/19 11:21:01;;;;;;;6.47;4.55;;;19.50;84.30;;;;;;4937047;28;92508;-70
2022/06/19 11:23:32;;;;;;;6.32;3.13;;;19.50;83.40;;;;;;4938674;28;93126;-70
2022/06/19 11:26:20;;;;;;;8.13;3.28;;;19.40;83.80;;;;;;4936517;28;94243;-70
2022/06/19 11:29:02;;;;;;;6.78;3.47;;;19.50;83.20;;;;;;4938811;28;92938;-70
2022/06/19 11:31:35;;;;;;;6.32;3.15;;;19.50;82.90;;;;;;4938535;28;93451;-70
2022/06/19 11:37:23;;;;;;;4.70;2.47;;;19.80;82.90;;;;;;4936823;28;95693;-70
2022/06/19 11:39:53;;;;;;;7.93;2.13;;;19.80;82.00;;;;;;4936968;28;95533;-70
2022/06/19 11:42:25;;;;;;;5.70;2.97;;;19.70;81.50;;;;;;4937091;28;92567;-70
2022/06/19 11:44:59;;;;;;;8.20;2.53;;;19.60;81.80;;;;;;4920720;28;92388;-70
2022/06/19 11:48:10;;;;;;;4.05;2.20;;;19.70;81.50;;;;;;4937016;28;93339;-70
2022/06/19 11:50:52;;;;;;;4.97;2.42;;;19.80;80.60;;;;;;4925103;28;94272;-70
2022/06/19 11:53:24;;;;;;;6.20;3.40;;;19.70;81.60;;;;;;4938259;28;92435;-70
2022/06/19 11:56:12;;;;;;;3.42;2.03;;;19.80;82.00;;;;;;4937009;28;91801;-70
2022/06/19 11:58:42;;;;;;;3.33;1.52;;;19.80;81.20;;;;;;4937860;28;93133;-70
2022/06/19 12:01:16;;;;;;;5.32;2.47;;;19.80;80.50;;;;;;4920098;28;94187;-70
2022/06/19 12:03:53;;;;;;;6.05;2.80;;;20.00;80.40;;;;;;4935435;28;94905;-70
2022/06/19 12:06:37;;;;;;;3.50;2.45;;;20.10;79.50;;;;;;4936321;28;92559;-70
2022/06/19 12:09:07;;;;;;;5.65;2.05;;;20.30;78.80;;;;;;4937625;28;93269;-70
2022/06/19 12:11:38;;;;;;;7.28;2.97;;;20.30;78.60;;;;;;4936411;28;93056;-70
2022/06/19 12:14:08;;;;;;;3.30;1.85;;;20.30;78.30;;;;;;4937587;28;92446;-70
2022/06/19 12:16:35;;;;;;;2.88;1.92;;;20.20;77.70;;;;;;4936569;28;92564;-70
2022/06/19 12:19:21;;;;;;;4.82;2.05;;;20.30;77.80;;;;;;4919871;28;95967;-70
2022/06/19 12:22:01;;;;;;;3.65;2.47;;;20.30;77.10;;;;;;4936753;28;92788;-70
2022/06/19 12:24:42;;;;;;;2.35;0.90;;;20.40;77.40;;;;;;4936516;28;93013;-70
2022/06/19 12:27:15;;;;;;;2.00;1.55;;;20.30;76.90;;;;;;4936034;28;92830;-71
2022/06/19 12:30:00;;;;;;;4.00;1.83;;;20.20;77.60;;;;;;4936269;28;95611;-70
2022/06/19 12:32:40;;;;;;;2.08;1.88;;;20.30;78.00;;;;;;4937400;28;96222;-71
2022/06/19 12:35:20;;;;;;;5.07;2.65;;;20.20;77.90;;;;;;4936258;28;92424;-70
2022/06/19 12:37:46;;;;;;;2.35;1.10;;;20.20;78.30;;;;;;4937498;28;92517;-70
2022/06/19 12:40:16;;;;;;;2.08;1.88;;;20.30;78.40;;;;;;4936826;28;93369;-70
2022/06/19 12:43:18;;;;;;;2.15;1.30;;;20.60;78.00;;;;;;4937161;28;93827;-70
2022/06/19 12:45:52;;;;;;;5.55;3.35;;;20.90;77.30;;;;;;4907969;28;92553;-70
2022/06/19 12:48:43;;;;;;;4.45;1.83;;;21.20;76.50;;;;;;4940218;28;92159;-71
2022/06/19 12:51:14;;;;;;;2.63;1.58;;;21.50;75.90;;;;;;4937064;28;93338;-70
2022/06/19 12:54:07;;;;;;;2.53;1.38;;;21.70;75.50;;;;;;4937257;28;93091;-71
2022/06/19 12:57:00;;;;;;;3.75;2.72;;;22.00;74.90;;;;;;4936257;28;94793;-70
2022/06/19 12:59:43;;;;;;;3.38;1.20;;;22.00;74.40;;;;;;4935561;28;92562;-71
2022/06/19 13:02:51;;;;;;;4.17;2.30;;;22.10;75.30;;;;;;4936309;28;93338;-71
2022/06/19 13:05:18;;;;;;;2.28;1.90;;;22.10;75.00;;;;;;4936748;28;92846;-71
2022/06/19 13:08:03;;;;;;;1.65;1.52;;;21.80;75.40;;;;;;4935825;28;92383;-70
2022/06/19 13:11:01;;;;;;;2.80;1.60;;;21.80;75.60;;;;;;4936996;28;92379;-71
2022/06/19 13:14:07;;;;;;;2.88;2.35;;;21.60;76.40;;;;;;4936955;28;93237;-70
2022/06/19 13:16:55;;;;;;;2.22;1.42;;;21.30;76.90;;;;;;4937169;28;93854;-71
2022/06/19 13:19:28;;;;;;;4.20;3.20;;;21.10;77.60;;;;;;4935758;28;92518;-70
2022/06/19 13:22:04;;;;;;;5.70;1.75;;;21.00;78.30;;;;;;4935680;28;92515;-70
2022/06/19 13:24:33;;;;;;;3.05;1.77;;;21.00;78.40;;;;;;4935401;28;96486;-70
2022/06/19 13:27:19;;;;;;;2.63;1.63;;;20.90;79.20;;;;;;4967834;28;96383;-70
2022/06/19 13:30:02;;;;;;;5.47;1.90;;;20.70;79.50;;;;;;4936943;28;92466;-70